createdAt,value
2023-04-08T00:00:32.176Z,1029.04
2023-04-08T00:01:32.178Z,1029.06
2023-04-08T00:02:32.344Z,1029.04
2023-04-08T00:03:32.430Z,1029.02
2023-04-08T00:04:32.314Z,1029.01
2023-04-08T00:05:32.154Z,1029.03
2023-04-08T00:06:32.153Z,1029.04
2023-04-08T00:07:32.159Z,1029.06
2023-04-08T00:08:32.160Z,1029.02
2023-04-08T00:09:32.166Z,1029.02
2023-04-08T00:10:32.235Z,1029.00
2023-04-08T00:11:32.167Z,1029.01
2023-04-08T00:12:32.182Z,1028.98
2023-04-08T00:13:32.163Z,1029.03
2023-04-08T00:14:32.167Z,1028.99
2023-04-08T00:15:32.168Z,1028.99
2023-04-08T00:16:32.250Z,1028.98
2023-04-08T00:17:32.193Z,1028.98
2023-04-08T00:18:32.185Z,1028.98
2023-04-08T00:19:33.144Z,1028.98
2023-04-08T00:20:32.325Z,1028.97
2023-04-08T00:21:32.184Z,1028.99
2023-04-08T00:22:32.192Z,1028.98
2023-04-08T00:23:32.193Z,1028.99
2023-04-08T00:24:32.187Z,1028.98
2023-04-08T00:25:32.494Z,1028.97
2023-04-08T00:26:32.216Z,1028.98
2023-04-08T00:27:32.191Z,1028.93
2023-04-08T00:28:32.196Z,1028.96
2023-04-08T00:29:32.197Z,1028.94
2023-04-08T00:30:32.213Z,1028.98
2023-04-08T00:31:32.208Z,1028.96
2023-04-08T00:32:32.233Z,1028.94
2023-04-08T00:33:32.211Z,1028.96
2023-04-08T00:34:32.205Z,1028.95
2023-04-08T00:35:32.250Z,1028.97
2023-04-08T00:36:32.209Z,1028.98
2023-04-08T00:37:32.213Z,1029.00
2023-04-08T00:38:32.214Z,1029.02
2023-04-08T00:39:32.216Z,1029.00
2023-04-08T00:40:32.220Z,1029.02
2023-04-08T00:41:32.224Z,1028.99
2023-04-08T00:42:32.249Z,1028.98
2023-04-08T00:43:32.228Z,1028.98
2023-04-08T00:44:32.226Z,1029.00
2023-04-08T00:45:32.530Z,1029.00
2023-04-08T00:46:32.232Z,1028.97
2023-04-08T00:47:32.285Z,1029.00
2023-04-08T00:48:32.242Z,1028.96
2023-04-08T00:49:32.242Z,1028.97
2023-04-08T00:50:32.239Z,1029.00
2023-04-08T00:51:32.256Z,1028.99
2023-04-08T00:52:32.247Z,1028.96
2023-04-08T00:53:32.254Z,1028.98
2023-04-08T00:54:32.247Z,1028.95
2023-04-08T00:55:32.252Z,1028.95
2023-04-08T00:56:32.249Z,1028.92
2023-04-08T00:57:32.252Z,1028.93
2023-04-08T00:58:32.277Z,1028.94
2023-04-08T00:59:32.266Z,1028.95
2023-04-08T01:00:32.413Z,1028.96
2023-04-08T01:01:32.381Z,1028.93
2023-04-08T01:02:32.490Z,1028.93
2023-04-08T01:03:32.307Z,1028.90
2023-04-08T01:04:32.319Z,1028.92
2023-04-08T01:05:32.439Z,1028.92
2023-04-08T01:06:32.278Z,1028.92
2023-04-08T01:07:32.281Z,1028.92
2023-04-08T01:08:32.277Z,1028.96
2023-04-08T01:09:32.289Z,1028.96
2023-04-08T01:10:32.291Z,1028.99
2023-04-08T01:11:32.296Z,1028.98
2023-04-08T01:12:32.282Z,1028.96
2023-04-08T01:13:32.287Z,1028.96
2023-04-08T01:14:32.326Z,1028.94
2023-04-08T01:15:32.332Z,1028.97
2023-04-08T01:16:32.292Z,1028.93
2023-04-08T01:17:32.322Z,1028.95
2023-04-08T01:18:32.307Z,1028.97
2023-04-08T01:19:32.306Z,1028.95
2023-04-08T01:20:32.297Z,1028.98
2023-04-08T01:21:32.305Z,1028.95
2023-04-08T01:22:32.303Z,1028.96
2023-04-08T01:23:32.310Z,1028.96
2023-04-08T01:24:32.310Z,1029.02
2023-04-08T01:25:32.560Z,1028.97
2023-04-08T01:26:32.328Z,1029.00
2023-04-08T01:27:32.325Z,1028.98
2023-04-08T01:28:32.315Z,1028.98
2023-04-08T01:29:32.327Z,1028.95
2023-04-08T01:30:32.354Z,1028.94
2023-04-08T01:31:32.398Z,1028.99
2023-04-08T01:32:32.373Z,1028.96
2023-04-08T01:33:32.332Z,1028.97
2023-04-08T01:34:32.334Z,1028.91
2023-04-08T01:35:32.364Z,1028.96
2023-04-08T01:36:32.328Z,1028.97
2023-04-08T01:37:32.337Z,1028.94
2023-04-08T01:38:32.338Z,1028.93
2023-04-08T01:39:32.366Z,1028.90
2023-04-08T01:40:32.350Z,1028.95
2023-04-08T01:41:32.366Z,1028.89
2023-04-08T01:42:32.363Z,1028.91
2023-04-08T01:43:32.367Z,1028.88
2023-04-08T01:44:32.359Z,1028.92
2023-04-08T01:45:32.360Z,1028.96
2023-04-08T01:46:32.476Z,1028.98
2023-04-08T01:47:32.426Z,1029.01
2023-04-08T01:48:32.363Z,1029.01
2023-04-08T01:49:32.366Z,1029.00
2023-04-08T01:50:32.373Z,1028.95
2023-04-08T01:51:32.371Z,1028.96
2023-04-08T01:52:32.371Z,1028.96
2023-04-08T01:53:32.370Z,1028.98
2023-04-08T01:54:32.376Z,1028.96
2023-04-08T01:55:32.379Z,1028.96
2023-04-08T01:56:32.379Z,1028.95
2023-04-08T01:57:32.392Z,1028.95
2023-04-08T01:58:32.384Z,1029.00
2023-04-08T01:59:32.404Z,1029.03
2023-04-08T02:00:32.384Z,1029.04
2023-04-08T02:01:32.465Z,1029.04
2023-04-08T02:02:32.575Z,1029.06
2023-04-08T02:03:32.479Z,1029.03
2023-04-08T02:04:32.447Z,1029.02
2023-04-08T02:05:32.555Z,1028.99
2023-04-08T02:06:32.416Z,1029.03
2023-04-08T02:07:32.408Z,1029.00
2023-04-08T02:08:32.402Z,1029.00
2023-04-08T02:09:32.418Z,1029.01
2023-04-08T02:10:32.407Z,1029.02
2023-04-08T02:11:32.407Z,1029.04
2023-04-08T02:12:32.414Z,1029.03
2023-04-08T02:13:32.410Z,1029.03
2023-04-08T02:14:32.417Z,1029.05
2023-04-08T02:15:32.413Z,1029.07
2023-04-08T02:16:32.447Z,1028.99
2023-04-08T02:17:33.997Z,1029.02
2023-04-08T02:18:32.451Z,1029.06
2023-04-08T02:19:32.422Z,1029.05
2023-04-08T02:20:32.435Z,1029.07
2023-04-08T02:21:32.431Z,1029.10
2023-04-08T02:22:32.428Z,1029.08
2023-04-08T02:23:32.429Z,1029.09
2023-04-08T02:24:32.440Z,1029.03
2023-04-08T02:25:32.435Z,1029.02
2023-04-08T02:26:32.437Z,1029.06
2023-04-08T02:27:32.439Z,1029.09
2023-04-08T02:28:32.448Z,1029.03
2023-04-08T02:29:32.445Z,1029.05
2023-04-08T02:30:32.447Z,1029.02
2023-04-08T02:31:32.474Z,1029.03
2023-04-08T02:32:32.477Z,1028.99
2023-04-08T02:33:32.456Z,1028.96
2023-04-08T02:34:32.482Z,1028.98
2023-04-08T02:35:32.578Z,1028.98
2023-04-08T02:36:32.461Z,1028.98
2023-04-08T02:37:32.453Z,1028.99
2023-04-08T02:38:32.460Z,1028.99
2023-04-08T02:39:32.466Z,1028.98
2023-04-08T02:40:32.461Z,1028.97
2023-04-08T02:41:32.467Z,1029.00
2023-04-08T02:42:32.476Z,1029.02
2023-04-08T02:43:32.599Z,1029.02
2023-04-08T02:44:32.473Z,1028.99
2023-04-08T02:45:32.517Z,1029.00
2023-04-08T02:46:32.477Z,1028.98
2023-04-08T02:47:32.508Z,1029.00
2023-04-08T02:48:32.474Z,1029.00
2023-04-08T02:49:32.475Z,1029.03
2023-04-08T02:50:32.517Z,1029.00
2023-04-08T02:51:32.483Z,1029.01
2023-04-08T02:52:32.497Z,1029.04
2023-04-08T02:53:32.484Z,1029.05
2023-04-08T02:54:32.499Z,1029.06
2023-04-08T02:55:32.487Z,1029.03
2023-04-08T02:56:32.499Z,1029.04
2023-04-08T02:57:32.493Z,1028.99
2023-04-08T02:58:32.499Z,1028.97
2023-04-08T02:59:32.498Z,1028.98
2023-04-08T03:00:32.513Z,1028.98
2023-04-08T03:01:32.578Z,1028.99
2023-04-08T03:02:32.660Z,1029.01
2023-04-08T03:03:32.661Z,1029.02
2023-04-08T03:04:32.504Z,1029.03
2023-04-08T03:05:32.510Z,1029.03
2023-04-08T03:06:32.532Z,1029.02
2023-04-08T03:07:32.511Z,1029.01
2023-04-08T03:08:32.530Z,1029.05
2023-04-08T03:09:32.514Z,1029.00
2023-04-08T03:10:32.517Z,1029.01
2023-04-08T03:11:32.518Z,1029.01
2023-04-08T03:12:32.522Z,1029.11
2023-04-08T03:13:32.528Z,1029.05
2023-04-08T03:14:32.530Z,1029.08
2023-04-08T03:15:32.525Z,1029.05
2023-04-08T03:16:32.541Z,1029.06
2023-04-08T03:17:32.560Z,1029.05
2023-04-08T03:18:32.539Z,1029.04
2023-04-08T03:19:32.533Z,1029.03
2023-04-08T03:20:32.545Z,1029.01
2023-04-08T03:21:32.537Z,1029.01
2023-04-08T03:22:32.564Z,1029.04
2023-04-08T03:23:32.550Z,1029.04
2023-04-08T03:24:32.548Z,1029.02
2023-04-08T03:25:32.554Z,1029.01
2023-04-08T03:26:32.560Z,1029.01
2023-04-08T03:27:32.548Z,1029.00
2023-04-08T03:28:32.561Z,1028.97
2023-04-08T03:29:32.555Z,1028.99
2023-04-08T03:30:32.558Z,1028.92
2023-04-08T03:31:32.590Z,1028.95
2023-04-08T03:32:32.585Z,1028.92
2023-04-08T03:33:32.566Z,1028.92
2023-04-08T03:34:32.565Z,1028.91
2023-04-08T03:35:32.579Z,1028.90
2023-04-08T03:36:32.574Z,1028.88
2023-04-08T03:37:32.594Z,1028.88
2023-04-08T03:38:32.597Z,1028.90
2023-04-08T03:39:32.582Z,1028.93
2023-04-08T03:40:32.887Z,1028.95
2023-04-08T03:41:32.578Z,1028.95
2023-04-08T03:42:32.582Z,1028.94
2023-04-08T03:43:32.584Z,1028.92
2023-04-08T03:44:32.584Z,1028.89
2023-04-08T03:45:32.583Z,1028.88
2023-04-08T03:46:32.814Z,1028.88
2023-04-08T03:47:32.605Z,1028.91
2023-04-08T03:48:32.600Z,1028.92
2023-04-08T03:49:32.588Z,1028.90
2023-04-08T03:50:32.596Z,1028.88
2023-04-08T03:51:32.598Z,1028.88
2023-04-08T03:52:32.601Z,1028.90
2023-04-08T03:53:32.603Z,1028.90
2023-04-08T03:54:32.627Z,1028.93
2023-04-08T03:55:32.809Z,1028.90
2023-04-08T03:56:32.614Z,1028.94
2023-04-08T03:57:32.606Z,1028.92
2023-04-08T03:58:32.615Z,1028.93
2023-04-08T03:59:32.614Z,1028.96
2023-04-08T04:00:32.771Z,1028.97
2023-04-08T04:01:32.637Z,1028.95
2023-04-08T04:02:32.747Z,1028.98
2023-04-08T04:03:32.725Z,1028.99
2023-04-08T04:04:32.675Z,1028.99
2023-04-08T04:05:32.622Z,1029.00
2023-04-08T04:06:32.635Z,1029.01
2023-04-08T04:07:32.624Z,1028.97
2023-04-08T04:08:32.629Z,1029.01
2023-04-08T04:09:32.629Z,1029.02
2023-04-08T04:10:32.654Z,1028.98
2023-04-08T04:11:32.646Z,1029.02
2023-04-08T04:12:32.639Z,1029.03
2023-04-08T04:13:32.667Z,1029.01
2023-04-08T04:14:32.647Z,1029.01
2023-04-08T04:15:32.796Z,1029.00
2023-04-08T04:16:33.156Z,1028.99
2023-04-08T04:17:32.712Z,1028.99
2023-04-08T04:18:32.672Z,1028.98
2023-04-08T04:19:32.642Z,1028.99
2023-04-08T04:20:32.649Z,1028.95
2023-04-08T04:21:32.647Z,1028.96
2023-04-08T04:22:32.652Z,1028.98
2023-04-08T04:23:32.660Z,1028.95
2023-04-08T04:24:32.657Z,1028.96
2023-04-08T04:25:32.655Z,1028.97
2023-04-08T04:26:32.694Z,1029.01
2023-04-08T04:27:32.661Z,1029.00
2023-04-08T04:28:32.667Z,1029.00
2023-04-08T04:29:32.661Z,1029.01
2023-04-08T04:30:32.673Z,1028.99
2023-04-08T04:31:32.675Z,1028.94
2023-04-08T04:32:32.697Z,1028.96
2023-04-08T04:33:32.672Z,1028.95
2023-04-08T04:34:32.675Z,1028.93
2023-04-08T04:35:32.700Z,1028.99
2023-04-08T04:36:32.679Z,1028.95
2023-04-08T04:37:32.678Z,1028.94
2023-04-08T04:38:32.681Z,1028.99
2023-04-08T04:39:32.683Z,1028.96
2023-04-08T04:40:32.685Z,1028.99
2023-04-08T04:41:32.701Z,1028.94
2023-04-08T04:42:32.718Z,1028.93
2023-04-08T04:43:32.693Z,1028.93
2023-04-08T04:44:32.693Z,1028.95
2023-04-08T04:45:32.692Z,1028.96
2023-04-08T04:46:32.733Z,1028.93
2023-04-08T04:47:32.896Z,1028.93
2023-04-08T04:48:32.709Z,1028.91
2023-04-08T04:49:32.704Z,1028.93
2023-04-08T04:50:32.732Z,1028.97
2023-04-08T04:51:32.708Z,1028.92
2023-04-08T04:52:32.714Z,1028.93
2023-04-08T04:53:32.720Z,1028.91
2023-04-08T04:54:32.715Z,1028.90
2023-04-08T04:55:32.769Z,1028.96
2023-04-08T04:56:32.720Z,1028.93
2023-04-08T04:57:32.720Z,1028.93
2023-04-08T04:58:32.759Z,1028.92
2023-04-08T04:59:32.721Z,1028.95
2023-04-08T05:00:32.728Z,1028.97
2023-04-08T05:01:32.768Z,1029.00
2023-04-08T05:02:32.769Z,1028.98
2023-04-08T05:03:32.745Z,1028.96
2023-04-08T05:04:32.736Z,1028.96
2023-04-08T05:05:32.785Z,1028.96
2023-04-08T05:06:32.744Z,1028.97
2023-04-08T05:07:32.739Z,1028.98
2023-04-08T05:08:32.746Z,1028.97
2023-04-08T05:09:32.747Z,1028.96
2023-04-08T05:10:32.751Z,1028.96
2023-04-08T05:11:32.753Z,1028.97
2023-04-08T05:12:32.772Z,1028.98
2023-04-08T05:13:32.756Z,1029.01
2023-04-08T05:14:32.791Z,1029.02
2023-04-08T05:15:32.771Z,1029.01
2023-04-08T05:16:32.941Z,1029.02
2023-04-08T05:17:32.827Z,1029.02
2023-04-08T05:18:32.767Z,1029.03
2023-04-08T05:19:32.764Z,1029.07
2023-04-08T05:20:33.078Z,1029.08
2023-04-08T05:21:32.772Z,1029.07
2023-04-08T05:22:32.778Z,1029.05
2023-04-08T05:23:32.785Z,1029.06
2023-04-08T05:24:32.784Z,1029.07
2023-04-08T05:25:33.078Z,1029.04
2023-04-08T05:26:32.783Z,1029.07
2023-04-08T05:27:32.802Z,1029.09
2023-04-08T05:28:32.792Z,1029.03
2023-04-08T05:29:32.790Z,1029.09
2023-04-08T05:30:32.904Z,1029.03
2023-04-08T05:31:32.806Z,1029.06
2023-04-08T05:32:32.921Z,1029.02
2023-04-08T05:33:32.797Z,1029.01
2023-04-08T05:34:32.798Z,1029.00
2023-04-08T05:35:32.857Z,1029.01
2023-04-08T05:36:32.807Z,1029.02
2023-04-08T05:37:32.803Z,1028.99
2023-04-08T05:38:32.807Z,1028.98
2023-04-08T05:39:32.807Z,1028.98
2023-04-08T05:40:32.815Z,1028.97
2023-04-08T05:41:32.820Z,1028.97
2023-04-08T05:42:32.816Z,1028.94
2023-04-08T05:43:32.827Z,1028.99
2023-04-08T05:44:32.819Z,1028.93
2023-04-08T05:45:32.821Z,1028.96
2023-04-08T05:46:32.882Z,1028.96
2023-04-08T05:47:32.831Z,1028.98
2023-04-08T05:48:32.829Z,1029.02
2023-04-08T05:49:32.827Z,1028.99
2023-04-08T05:50:32.830Z,1028.98
2023-04-08T05:51:32.832Z,1028.99
2023-04-08T05:52:32.845Z,1028.98
2023-04-08T05:53:32.836Z,1029.00
2023-04-08T05:54:32.841Z,1029.01
2023-04-08T05:55:32.836Z,1028.98
2023-04-08T05:56:32.842Z,1029.03
2023-04-08T05:57:32.837Z,1029.01
2023-04-08T05:58:32.840Z,1029.01
2023-04-08T05:59:32.840Z,1029.01
2023-04-08T06:00:32.875Z,1029.01
2023-04-08T06:01:32.865Z,1029.01
2023-04-08T06:02:33.005Z,1029.05
2023-04-08T06:03:32.933Z,1029.04
2023-04-08T06:04:32.916Z,1029.04
2023-04-08T06:05:33.152Z,1029.02
2023-04-08T06:06:32.883Z,1029.04
2023-04-08T06:07:32.866Z,1029.04
2023-04-08T06:08:32.858Z,1029.02
2023-04-08T06:09:32.866Z,1029.05
2023-04-08T06:10:32.860Z,1029.08
2023-04-08T06:11:32.867Z,1029.11
2023-04-08T06:12:32.863Z,1029.15
2023-04-08T06:13:32.885Z,1029.09
2023-04-08T06:14:32.864Z,1029.11
2023-04-08T06:15:32.884Z,1029.09
2023-04-08T06:16:32.912Z,1029.14
2023-04-08T06:17:32.892Z,1029.13
2023-04-08T06:18:32.936Z,1029.16
2023-04-08T06:19:32.887Z,1029.17
2023-04-08T06:20:32.875Z,1029.12
2023-04-08T06:21:32.878Z,1029.13
2023-04-08T06:22:32.878Z,1029.14
2023-04-08T06:23:32.908Z,1029.17
2023-04-08T06:24:32.888Z,1029.15
2023-04-08T06:25:32.883Z,1029.14
2023-04-08T06:26:33.219Z,1029.12
2023-04-08T06:27:32.889Z,1029.13
2023-04-08T06:28:32.892Z,1029.14
2023-04-08T06:29:32.895Z,1029.09
2023-04-08T06:30:32.895Z,1029.11
2023-04-08T06:31:32.922Z,1029.12
2023-04-08T06:32:32.978Z,1029.14
2023-04-08T06:33:32.907Z,1029.12
2023-04-08T06:34:32.976Z,1029.15
2023-04-08T06:35:33.001Z,1029.16
2023-04-08T06:36:32.918Z,1029.14
2023-04-08T06:37:33.209Z,1029.15
2023-04-08T06:38:32.910Z,1029.18
2023-04-08T06:39:32.938Z,1029.17
2023-04-08T06:40:32.924Z,1029.20
2023-04-08T06:41:32.923Z,1029.16
2023-04-08T06:42:32.941Z,1029.20
2023-04-08T06:43:32.932Z,1029.14
2023-04-08T06:44:32.926Z,1029.21
2023-04-08T06:45:32.968Z,1029.18
2023-04-08T06:46:32.927Z,1029.18
2023-04-08T06:47:32.973Z,1029.15
2023-04-08T06:48:32.938Z,1029.16
2023-04-08T06:49:32.947Z,1029.18
2023-04-08T06:50:32.970Z,1029.18
2023-04-08T06:51:32.942Z,1029.18
2023-04-08T06:52:32.948Z,1029.18
2023-04-08T06:53:33.040Z,1029.20
2023-04-08T06:54:32.950Z,1029.20
2023-04-08T06:55:32.955Z,1029.22
2023-04-08T06:56:32.950Z,1029.21
2023-04-08T06:57:33.002Z,1029.22
2023-04-08T06:58:32.949Z,1029.21
2023-04-08T06:59:32.968Z,1029.21
2023-04-08T07:00:32.962Z,1029.18
2023-04-08T07:01:33.038Z,1029.20
2023-04-08T07:02:33.139Z,1029.18
2023-04-08T07:03:33.018Z,1029.17
2023-04-08T07:04:33.262Z,1029.14
2023-04-08T07:05:32.971Z,1029.17
2023-04-08T07:06:32.999Z,1029.16
2023-04-08T07:07:33.175Z,1029.20
2023-04-08T07:08:32.980Z,1029.15
2023-04-08T07:09:32.997Z,1029.18
2023-04-08T07:10:32.972Z,1029.18
2023-04-08T07:11:32.982Z,1029.14
2023-04-08T07:12:32.982Z,1029.18
2023-04-08T07:13:32.983Z,1029.17
2023-04-08T07:14:32.989Z,1029.19
2023-04-08T07:15:33.009Z,1029.16
2023-04-08T07:16:33.001Z,1029.20
2023-04-08T07:17:33.032Z,1029.19
2023-04-08T07:18:33.004Z,1029.18
2023-04-08T07:19:33.002Z,1029.13
2023-04-08T07:20:33.003Z,1029.15
2023-04-08T07:21:33.002Z,1029.15
2023-04-08T07:22:33.028Z,1029.19
2023-04-08T07:23:33.003Z,1029.17
2023-04-08T07:24:33.004Z,1029.20
2023-04-08T07:25:33.016Z,1029.15
2023-04-08T07:26:33.005Z,1029.13
2023-04-08T07:27:33.010Z,1029.13
2023-04-08T07:28:33.061Z,1029.08
2023-04-08T07:29:33.021Z,1029.12
2023-04-08T07:30:33.077Z,1029.10
2023-04-08T07:31:33.112Z,1029.12
2023-04-08T07:32:33.081Z,1029.10
2023-04-08T07:33:33.047Z,1029.13
2023-04-08T07:34:33.028Z,1029.17
2023-04-08T07:35:33.191Z,1029.13
2023-04-08T07:36:33.037Z,1029.10
2023-04-08T07:37:33.091Z,1029.11
2023-04-08T07:38:33.127Z,1029.12
2023-04-08T07:39:33.135Z,1029.10
2023-04-08T07:40:33.048Z,1029.12
2023-04-08T07:41:33.072Z,1029.11
2023-04-08T07:42:33.092Z,1029.14
2023-04-08T07:43:33.084Z,1029.12
2023-04-08T07:44:33.073Z,1029.13
2023-04-08T07:45:33.161Z,1029.10
2023-04-08T07:46:33.125Z,1029.13
2023-04-08T07:47:33.108Z,1029.14
2023-04-08T07:48:33.106Z,1029.14
2023-04-08T07:49:33.088Z,1029.16
2023-04-08T07:50:33.102Z,1029.13
2023-04-08T07:51:33.065Z,1029.17
2023-04-08T07:52:33.159Z,1029.17
2023-04-08T07:53:33.151Z,1029.15
2023-04-08T07:54:33.123Z,1029.16
2023-04-08T07:55:33.143Z,1029.18
2023-04-08T07:56:33.077Z,1029.17
2023-04-08T07:57:33.077Z,1029.14
2023-04-08T07:58:33.226Z,1029.14
2023-04-08T07:59:33.119Z,1029.16
2023-04-08T08:00:33.147Z,1029.13
2023-04-08T08:01:33.156Z,1029.13
2023-04-08T08:02:33.137Z,1029.13
2023-04-08T08:03:34.152Z,1029.08
2023-04-08T08:04:33.288Z,1029.12
2023-04-08T08:05:33.080Z,1029.09
2023-04-08T08:06:33.083Z,1029.13
2023-04-08T08:07:33.090Z,1029.12
2023-04-08T08:08:33.137Z,1029.04
2023-04-08T08:09:33.104Z,1029.08
2023-04-08T08:10:33.118Z,1029.08
2023-04-08T08:11:33.121Z,1029.06
2023-04-08T08:12:33.098Z,1029.12
2023-04-08T08:13:33.156Z,1029.13
2023-04-08T08:14:33.106Z,1029.11
2023-04-08T08:15:33.104Z,1029.12
2023-04-08T08:16:33.199Z,1029.14
2023-04-08T08:17:33.149Z,1029.16
2023-04-08T08:18:33.394Z,1029.15
2023-04-08T08:19:33.114Z,1029.13
2023-04-08T08:20:33.115Z,1029.15
2023-04-08T08:21:33.113Z,1029.13
2023-04-08T08:22:33.122Z,1029.14
2023-04-08T08:23:33.121Z,1029.13
2023-04-08T08:24:33.174Z,1029.12
2023-04-08T08:25:33.127Z,1029.17
2023-04-08T08:26:33.146Z,1029.12
2023-04-08T08:27:33.137Z,1029.18
2023-04-08T08:28:33.132Z,1029.20
2023-04-08T08:29:33.187Z,1029.18
2023-04-08T08:30:34.133Z,1029.20
2023-04-08T08:31:33.178Z,1029.22
2023-04-08T08:32:33.178Z,1029.26
2023-04-08T08:33:33.150Z,1029.25
2023-04-08T08:34:33.153Z,1029.26
2023-04-08T08:35:33.182Z,1029.29
2023-04-08T08:36:34.219Z,1029.30
2023-04-08T08:37:33.148Z,1029.30
2023-04-08T08:38:33.166Z,1029.33
2023-04-08T08:39:33.155Z,1029.34
2023-04-08T08:40:33.151Z,1029.31
2023-04-08T08:41:33.154Z,1029.31
2023-04-08T08:42:34.391Z,1029.28
2023-04-08T08:43:33.164Z,1029.29
2023-04-08T08:44:33.164Z,1029.28
2023-04-08T08:45:33.164Z,1029.29
2023-04-08T08:46:33.262Z,1029.27
2023-04-08T08:47:33.268Z,1029.30
2023-04-08T08:48:33.179Z,1029.32
2023-04-08T08:49:33.180Z,1029.28
2023-04-08T08:50:33.179Z,1029.26
2023-04-08T08:51:33.181Z,1029.28
2023-04-08T08:52:33.181Z,1029.30
2023-04-08T08:53:35.720Z,1029.32
2023-04-08T08:54:33.187Z,1029.30
2023-04-08T08:55:50.838Z,1029.36
2023-04-08T08:56:33.263Z,1029.30
2023-04-08T08:57:33.200Z,1029.32
2023-04-08T08:58:33.222Z,1029.26
2023-04-08T08:59:33.208Z,1029.32
2023-04-08T09:00:34.618Z,1029.31
2023-04-08T09:01:33.567Z,1029.32
2023-04-08T09:02:33.349Z,1029.30
2023-04-08T09:03:33.414Z,1029.32
2023-04-08T09:04:33.335Z,1029.32
2023-04-08T09:05:33.406Z,1029.30
2023-04-08T09:06:33.224Z,1029.29
2023-04-08T09:07:33.220Z,1029.30
2023-04-08T09:08:33.239Z,1029.23
2023-04-08T09:09:33.223Z,1029.24
2023-04-08T09:10:33.480Z,1029.23
2023-04-08T09:11:33.231Z,1029.22
2023-04-08T09:12:33.234Z,1029.21
2023-04-08T09:13:33.242Z,1029.20
2023-04-08T09:14:33.273Z,1029.22
2023-04-08T09:15:33.308Z,1029.21
2023-04-08T09:16:33.301Z,1029.20
2023-04-08T09:17:33.342Z,1029.17
2023-04-08T09:18:33.280Z,1029.19
2023-04-08T09:19:33.281Z,1029.18
2023-04-08T09:20:33.288Z,1029.16
2023-04-08T09:21:33.293Z,1029.19
2023-04-08T09:22:33.305Z,1029.21
2023-04-08T09:23:33.312Z,1029.22
2023-04-08T09:24:33.317Z,1029.21
2023-04-08T09:25:33.330Z,1029.20
2023-04-08T09:26:33.350Z,1029.20
2023-04-08T09:27:33.337Z,1029.18
2023-04-08T09:28:33.341Z,1029.15
2023-04-08T09:29:34.740Z,1029.13
2023-04-08T09:30:33.385Z,1029.11
2023-04-08T09:31:33.382Z,1029.07
2023-04-08T09:32:33.426Z,1029.11
2023-04-08T09:33:33.375Z,1029.15
2023-04-08T09:34:33.374Z,1029.11
2023-04-08T09:35:33.570Z,1029.11
2023-04-08T09:36:33.388Z,1029.07
2023-04-08T09:37:33.388Z,1029.11
2023-04-08T09:38:33.399Z,1029.02
2023-04-08T09:39:33.402Z,1029.03
2023-04-08T09:40:33.554Z,1029.06
2023-04-08T09:41:33.416Z,1029.02
2023-04-08T09:42:33.420Z,1029.04
2023-04-08T09:43:33.418Z,1029.00
2023-04-08T09:44:33.431Z,1029.00
2023-04-08T09:45:33.451Z,1028.98
2023-04-08T09:46:33.546Z,1029.01
2023-04-08T09:47:33.452Z,1029.00
2023-04-08T09:48:33.443Z,1029.00
2023-04-08T09:49:33.448Z,1029.05
2023-04-08T09:50:33.505Z,1029.03
2023-04-08T09:51:33.453Z,1029.04
2023-04-08T09:52:33.470Z,1029.01
2023-04-08T09:53:33.470Z,1028.98
2023-04-08T09:54:33.474Z,1029.00
2023-04-08T09:55:33.480Z,1028.95
2023-04-08T09:56:33.482Z,1028.95
2023-04-08T09:57:33.548Z,1028.96
2023-04-08T09:58:33.487Z,1028.95
2023-04-08T09:59:33.503Z,1028.98
2023-04-08T10:00:33.495Z,1029.01
2023-04-08T10:01:33.572Z,1028.96
2023-04-08T10:02:33.658Z,1028.96
2023-04-08T10:03:33.840Z,1028.95
2023-04-08T10:04:33.676Z,1028.95
2023-04-08T10:05:33.823Z,1028.91
2023-04-08T10:06:33.540Z,1028.95
2023-04-08T10:07:33.533Z,1028.98
2023-04-08T10:08:33.557Z,1028.91
2023-04-08T10:09:33.542Z,1028.96
2023-04-08T10:10:33.703Z,1028.98
2023-04-08T10:11:33.554Z,1028.97
2023-04-08T10:12:33.559Z,1028.98
2023-04-08T10:13:33.567Z,1028.93
2023-04-08T10:14:33.572Z,1028.91
2023-04-08T10:15:33.587Z,1028.89
2023-04-08T10:16:33.610Z,1028.82
2023-04-08T10:17:33.634Z,1028.88
2023-04-08T10:18:33.616Z,1028.86
2023-04-08T10:19:33.607Z,1028.85
2023-04-08T10:20:33.615Z,1028.82
2023-04-08T10:21:33.630Z,1028.84
2023-04-08T10:22:33.631Z,1028.84
2023-04-08T10:23:33.642Z,1028.86
2023-04-08T10:24:33.637Z,1028.84
2023-04-08T10:25:33.807Z,1028.82
2023-04-08T10:26:33.669Z,1028.80
2023-04-08T10:27:33.658Z,1028.80
2023-04-08T10:28:33.660Z,1028.79
2023-04-08T10:29:33.672Z,1028.81
2023-04-08T10:30:33.679Z,1028.80
2023-04-08T10:31:33.698Z,1028.78
2023-04-08T10:32:33.696Z,1028.79
2023-04-08T10:33:33.690Z,1028.80
2023-04-08T10:34:33.726Z,1028.75
2023-04-08T10:35:33.700Z,1028.77
2023-04-08T10:36:33.702Z,1028.73
2023-04-08T10:37:33.711Z,1028.71
2023-04-08T10:38:33.711Z,1028.72
2023-04-08T10:39:33.717Z,1028.75
2023-04-08T10:40:33.722Z,1028.80
2023-04-08T10:41:33.718Z,1028.79
2023-04-08T10:42:33.732Z,1028.77
2023-04-08T10:43:33.736Z,1028.79
2023-04-08T10:44:33.743Z,1028.79
2023-04-08T10:45:33.753Z,1028.78
2023-04-08T10:46:33.806Z,1028.79
2023-04-08T10:47:33.818Z,1028.80
2023-04-08T10:48:33.765Z,1028.79
2023-04-08T10:49:33.764Z,1028.77
2023-04-08T10:50:33.789Z,1028.78
2023-04-08T10:51:34.049Z,1028.76
2023-04-08T10:52:33.766Z,1028.77
2023-04-08T10:53:33.880Z,1028.75
2023-04-08T10:54:33.785Z,1028.74
2023-04-08T10:55:33.828Z,1028.79
2023-04-08T10:56:33.782Z,1028.76
2023-04-08T10:57:33.780Z,1028.76
2023-04-08T10:58:33.790Z,1028.76
2023-04-08T10:59:33.804Z,1028.77
2023-04-08T11:00:33.803Z,1028.76
2023-04-08T11:01:33.849Z,1028.72
2023-04-08T11:02:33.956Z,1028.70
2023-04-08T11:03:34.033Z,1028.69
2023-04-08T11:04:33.942Z,1028.68
2023-04-08T11:05:33.870Z,1028.72
2023-04-08T11:06:33.849Z,1028.68
2023-04-08T11:07:33.828Z,1028.74
2023-04-08T11:08:33.867Z,1028.68
2023-04-08T11:09:33.840Z,1028.69
2023-04-08T11:10:34.142Z,1028.69
2023-04-08T11:11:33.843Z,1028.73
2023-04-08T11:12:33.845Z,1028.72
2023-04-08T11:13:33.852Z,1028.74
2023-04-08T11:14:33.863Z,1028.73
2023-04-08T11:15:33.876Z,1028.70
2023-04-08T11:16:33.960Z,1028.68
2023-04-08T11:17:33.876Z,1028.67
2023-04-08T11:18:33.871Z,1028.70
2023-04-08T11:19:33.866Z,1028.66
2023-04-08T11:20:33.875Z,1028.66
2023-04-08T11:21:33.882Z,1028.68
2023-04-08T11:22:33.912Z,1028.68
2023-04-08T11:23:33.884Z,1028.69
2023-04-08T11:24:33.890Z,1028.71
2023-04-08T11:25:34.054Z,1028.64
2023-04-08T11:26:33.895Z,1028.68
2023-04-08T11:27:33.904Z,1028.68
2023-04-08T11:28:33.912Z,1028.70
2023-04-08T11:29:33.931Z,1028.69
2023-04-08T11:30:33.911Z,1028.66
2023-04-08T11:31:33.978Z,1028.66
2023-04-08T11:32:34.066Z,1028.67
2023-04-08T11:33:33.932Z,1028.67
2023-04-08T11:34:33.928Z,1028.66
2023-04-08T11:35:34.145Z,1028.65
2023-04-08T11:36:33.931Z,1028.66
2023-04-08T11:37:33.936Z,1028.66
2023-04-08T11:38:33.971Z,1028.62
2023-04-08T11:39:33.941Z,1028.60
2023-04-08T11:40:33.956Z,1028.63
2023-04-08T11:41:33.947Z,1028.60
2023-04-08T11:42:33.956Z,1028.61
2023-04-08T11:43:33.964Z,1028.63
2023-04-08T11:44:33.960Z,1028.60
2023-04-08T11:45:33.967Z,1028.59
2023-04-08T11:46:34.058Z,1028.58
2023-04-08T11:47:33.980Z,1028.59
2023-04-08T11:48:33.981Z,1028.60
2023-04-08T11:49:33.978Z,1028.58
2023-04-08T11:50:33.980Z,1028.57
2023-04-08T11:51:33.983Z,1028.55
2023-04-08T11:52:33.989Z,1028.56
2023-04-08T11:53:33.990Z,1028.53
2023-04-08T11:54:34.036Z,1028.53
2023-04-08T11:55:34.016Z,1028.50
2023-04-08T11:56:34.010Z,1028.51
2023-04-08T11:57:34.011Z,1028.48
2023-04-08T11:58:34.007Z,1028.51
2023-04-08T11:59:34.018Z,1028.51
2023-04-08T12:00:34.332Z,1028.49
2023-04-08T12:01:34.077Z,1028.44
2023-04-08T12:02:34.087Z,1028.46
2023-04-08T12:03:34.124Z,1028.49
2023-04-08T12:04:34.189Z,1028.52
2023-04-08T12:05:34.038Z,1028.49